首页
METAR-TAF:

METAR-TAF

机场 :

合肥新桥国际机场

合肥, 中华人民共和国

纬度: 31-52N, 经度: 117-14E, 海拔: 36米

当前天气观测

该预报发布于51分钟前的20:00 UTC
风速10节,风向西
温度 25°C
湿度 94%
气压 1001 hPa
能见度10公里或以上
多云层高于1500英尺
多云层高于4000英尺

METAR: ZSOF 192000Z 28005MPS 9999 BKN015 BKN040 25/24 Q1001 NOSIG

时间: 04:51 (20:51 UTC)

预报

该预报发布于5小时和51分钟前的15:00 UTC
预报有效从19日的 18点(UTC)到 20日的 18点(UTC)
风速8节,风向西转西北
能見度: 3000
轻雾

TAF: ZSOF 191500Z 1918/2018 30004MPS 3000 BR NSC TX32/2007Z TN24/1922Z

超过4000个机场的气象观测和天气预报(METAR&TAF报告)。

可查询的气象台以黄色和红色小点在地图上表示。

将鼠标移到小点上方,可查看气象台名称。

然后点击查看天气观测和预报。

如需切换地图:点击带黑十字的绿色按钮放大地图;点击带横线的绿色按钮缩小地图;或者点击绿色箭头查看邻近地区的地图。


METAR-TAF: